createdAt,value
2022-09-22T00:01:29.225Z,102248.97
2022-09-22T00:03:59.203Z,102240.19
2022-09-22T00:06:34.741Z,102237.56
2022-09-22T00:09:05.369Z,102232.28
2022-09-22T00:11:43.790Z,102233.16
2022-09-22T00:14:14.489Z,102234.03
2022-09-22T00:16:51.882Z,102233.16
2022-09-22T00:19:23.386Z,102232.28
2022-09-22T00:21:50.768Z,102230.47
2022-09-22T00:24:19.432Z,102226.97
2022-09-22T00:26:52.548Z,102230.50
2022-09-22T00:29:19.227Z,102229.63
2022-09-22T00:31:47.796Z,102228.72
2022-09-22T00:34:20.996Z,102227.84
2022-09-22T00:36:48.383Z,102218.16
2022-09-22T00:39:18.679Z,102219.06
2022-09-22T00:41:52.481Z,102218.16
2022-09-22T00:44:42.763Z,102217.28
2022-09-22T00:47:20.095Z,102219.91
2022-09-22T00:50:25.276Z,102225.19
2022-09-22T00:53:06.041Z,102226.94
2022-09-22T00:55:48.162Z,102209.34
2022-09-22T00:58:20.883Z,102212.00
2022-09-22T01:00:47.688Z,102219.91
2022-09-22T01:03:27.514Z,102213.75
2022-09-22T01:06:01.439Z,102208.47
2022-09-22T01:08:29.935Z,102203.19
2022-09-22T01:10:59.518Z,102212.84
2022-09-22T01:13:38.090Z,102213.75
2022-09-22T01:16:39.339Z,102200.50
2022-09-22T01:19:27.803Z,102211.91
2022-09-22T01:22:04.898Z,102207.50
2022-09-22T01:24:46.751Z,102204.84
2022-09-22T01:27:50.390Z,102205.72
2022-09-22T01:30:30.388Z,102203.88
2022-09-22T01:33:06.441Z,102199.47
2022-09-22T01:36:11.077Z,102194.19
2022-09-22T01:39:01.613Z,102196.84
2022-09-22T01:42:03.593Z,102201.28
2022-09-22T01:44:37.306Z,102194.28
2022-09-22T01:47:09.258Z,102189.88
2022-09-22T01:49:40.031Z,102194.25
2022-09-22T01:52:12.671Z,102186.34
2022-09-22T01:54:45.434Z,102184.59
2022-09-22T01:57:17.641Z,102188.09
2022-09-22T01:59:50.488Z,102181.97
2022-09-22T02:02:28.850Z,102174.06
2022-09-22T02:05:00.100Z,102178.44
2022-09-22T02:07:33.876Z,102178.44
2022-09-22T02:10:05.262Z,102170.53
2022-09-22T02:12:31.890Z,102172.31
2022-09-22T02:14:58.618Z,102171.44
2022-09-22T02:17:25.251Z,102170.56
2022-09-22T02:19:52.375Z,102163.53
2022-09-22T02:22:19.157Z,102157.38
2022-09-22T02:24:46.833Z,102161.78
2022-09-22T02:27:26.956Z,102164.44
2022-09-22T02:30:05.278Z,102164.41
2022-09-22T02:32:34.549Z,102164.38
2022-09-22T02:35:02.147Z,102156.44
2022-09-22T02:37:47.580Z,102164.34
2022-09-22T02:40:31.991Z,102158.19
2022-09-22T02:43:01.277Z,102156.44
2022-09-22T02:45:43.316Z,102149.41
2022-09-22T02:48:23.062Z,102152.03
2022-09-22T02:50:50.498Z,102147.63
2022-09-22T02:53:18.231Z,102150.28
2022-09-22T02:55:46.153Z,102146.72
2022-09-22T02:58:16.671Z,102149.34
2022-09-22T03:00:45.343Z,102144.97
2022-09-22T03:03:12.290Z,102145.84
2022-09-22T03:05:39.241Z,102150.16
2022-09-22T03:08:06.150Z,102148.41
2022-09-22T03:10:33.109Z,102143.97
2022-09-22T03:13:16.844Z,102141.34
2022-09-22T03:15:46.977Z,102133.44
2022-09-22T03:18:14.294Z,102135.22
2022-09-22T03:20:41.606Z,102137.81
2022-09-22T03:23:08.428Z,102132.53
2022-09-22T03:25:35.118Z,102139.56
2022-09-22T03:28:02.163Z,102136.06
2022-09-22T03:30:28.885Z,102136.94
2022-09-22T03:32:55.457Z,102134.28
2022-09-22T03:35:22.188Z,102128.19
2022-09-22T03:37:48.843Z,102133.41
2022-09-22T03:40:15.687Z,102122.88
2022-09-22T03:42:42.450Z,102131.66
2022-09-22T03:45:09.759Z,102124.66
2022-09-22T03:47:36.360Z,102129.03
2022-09-22T03:50:03.100Z,102126.38
2022-09-22T03:52:29.868Z,102127.25
2022-09-22T03:54:56.462Z,102123.75
2022-09-22T03:57:23.074Z,102126.38
2022-09-22T03:59:49.849Z,102118.47
2022-09-22T04:02:17.004Z,102112.31
2022-09-22T04:04:43.798Z,102121.09
2022-09-22T04:07:10.454Z,102123.69
2022-09-22T04:09:37.090Z,102123.69
2022-09-22T04:12:03.933Z,102114.94
2022-09-22T04:14:31.004Z,102114.94
2022-09-22T04:16:57.658Z,102115.78
2022-09-22T04:19:24.362Z,102121.94
2022-09-22T04:21:56.249Z,102122.78
2022-09-22T04:24:24.621Z,102125.44
2022-09-22T04:27:18.077Z,102121.94
2022-09-22T04:29:38.402Z,102128.94
2022-09-22T04:32:05.507Z,102127.16
2022-09-22T04:34:32.266Z,102127.16
2022-09-22T04:36:59.112Z,102125.41
2022-09-22T04:39:28.559Z,102133.34
2022-09-22T04:41:55.842Z,102127.16
2022-09-22T04:44:22.639Z,102124.53
2022-09-22T04:46:50.251Z,102124.56
2022-09-22T04:49:17.898Z,102126.31
2022-09-22T04:51:44.720Z,102120.16
2022-09-22T04:54:11.431Z,102127.16
2022-09-22T04:56:38.176Z,102120.13
2022-09-22T04:59:04.770Z,102120.13
2022-09-22T05:01:31.451Z,102118.34
2022-09-22T05:03:58.054Z,102126.25
2022-09-22T05:06:24.739Z,102119.22
2022-09-22T05:08:51.338Z,102121.00
2022-09-22T05:11:19.222Z,102117.47
2022-09-22T05:13:46.345Z,102114.81
2022-09-22T05:16:13.076Z,102114.81
2022-09-22T05:18:39.873Z,102122.69
2022-09-22T05:21:07.327Z,102123.59
2022-09-22T05:23:34.258Z,102121.81
2022-09-22T05:26:01.046Z,102114.78
2022-09-22T05:28:27.775Z,102117.41
2022-09-22T05:30:54.374Z,102117.44
2022-09-22T05:33:21.020Z,102115.72
2022-09-22T05:35:47.686Z,102121.00
2022-09-22T05:38:14.286Z,102115.72
2022-09-22T05:40:41.133Z,102117.50
2022-09-22T05:43:07.819Z,102123.66
2022-09-22T05:45:34.501Z,102123.66
2022-09-22T05:48:01.343Z,102111.34
2022-09-22T05:50:28.047Z,102115.75
2022-09-22T05:53:09.561Z,102115.78
2022-09-22T05:55:38.765Z,102112.28
2022-09-22T05:58:05.669Z,102112.28
2022-09-22T06:00:32.897Z,102120.22
2022-09-22T06:02:59.609Z,102113.22
2022-09-22T06:05:26.410Z,102114.09
2022-09-22T06:08:03.635Z,102124.66
2022-09-22T06:10:31.827Z,102111.53
2022-09-22T06:13:06.566Z,102117.75
2022-09-22T06:15:36.473Z,102118.63
2022-09-22T06:18:07.413Z,102123.94
2022-09-22T06:20:34.974Z,102123.94
2022-09-22T06:23:02.205Z,102116.03
2022-09-22T06:25:29.278Z,102111.69
2022-09-22T06:28:05.286Z,102116.97
2022-09-22T06:30:33.487Z,102115.22
2022-09-22T06:33:00.546Z,102118.75
2022-09-22T06:35:35.415Z,102120.53
2022-09-22T06:38:02.256Z,102124.91
2022-09-22T06:40:29.324Z,102119.66
2022-09-22T06:43:10.621Z,102113.50
2022-09-22T06:45:41.445Z,102117.03
2022-09-22T06:48:10.978Z,102116.16
2022-09-22T06:50:38.324Z,102112.63
2022-09-22T06:53:09.558Z,102108.25
2022-09-22T06:55:36.265Z,102116.13
2022-09-22T06:58:03.361Z,102107.31
2022-09-22T07:00:32.898Z,102099.38
2022-09-22T07:03:25.531Z,102101.09
2022-09-22T07:06:03.706Z,102101.97
2022-09-22T07:08:33.199Z,102104.56
2022-09-22T07:11:02.510Z,102106.22
2022-09-22T07:13:30.670Z,102106.19
2022-09-22T07:16:01.913Z,102101.72
2022-09-22T07:18:29.962Z,102099.91
2022-09-22T07:21:11.897Z,102108.69
2022-09-22T07:23:40.895Z,102104.22
2022-09-22T07:26:14.524Z,102106.84
2022-09-22T07:28:41.745Z,102105.00
2022-09-22T07:31:13.210Z,102098.75
2022-09-22T07:33:42.678Z,102097.78
2022-09-22T07:36:15.771Z,102095.91
2022-09-22T07:38:44.590Z,102092.22
2022-09-22T07:41:13.965Z,102098.19
2022-09-22T07:43:41.828Z,102097.16
2022-09-22T07:46:09.177Z,102097.84
2022-09-22T07:48:46.953Z,102102.09
2022-09-22T07:51:20.654Z,102097.53
2022-09-22T07:53:54.367Z,102095.59
2022-09-22T07:56:24.022Z,102099.78
2022-09-22T07:58:53.499Z,102099.56
2022-09-22T08:01:22.439Z,102088.66
2022-09-22T08:03:49.321Z,102095.41
2022-09-22T08:06:18.499Z,102090.81
2022-09-22T08:08:47.781Z,102088.84
2022-09-22T08:11:17.491Z,102088.66
2022-09-22T08:13:53.811Z,102087.53
2022-09-22T08:16:23.114Z,102083.00
2022-09-22T08:18:56.656Z,102086.34
2022-09-22T08:21:27.691Z,102087.84
2022-09-22T08:23:54.993Z,102090.28
2022-09-22T08:26:26.073Z,102094.53
2022-09-22T08:28:54.358Z,102085.53
2022-09-22T08:31:22.626Z,102077.44
2022-09-22T08:33:52.070Z,102080.00
2022-09-22T08:36:18.687Z,102077.28
2022-09-22T08:38:49.467Z,102076.34
2022-09-22T08:41:27.724Z,102079.81
2022-09-22T08:43:57.575Z,102076.91
2022-09-22T08:46:44.162Z,102065.94
2022-09-22T08:49:44.308Z,102071.81
2022-09-22T08:52:39.012Z,102075.13
2022-09-22T08:55:11.993Z,102075.91
2022-09-22T08:57:47.699Z,102066.53
2022-09-22T09:00:17.449Z,102072.59
2022-09-22T09:03:05.725Z,102073.53
2022-09-22T09:05:54.602Z,102066.47
2022-09-22T09:08:42.759Z,102060.09
2022-09-22T09:11:36.418Z,102058.09
2022-09-22T09:14:24.373Z,102055.34
2022-09-22T09:17:09.071Z,102062.38
2022-09-22T09:19:43.795Z,102056.03
2022-09-22T09:22:32.754Z,102052.28
2022-09-22T09:25:24.420Z,102054.81
2022-09-22T09:27:58.284Z,102057.41
2022-09-22T09:30:25.182Z,102051.94
2022-09-22T09:32:59.399Z,102049.97
2022-09-22T09:35:38.265Z,102053.22
2022-09-22T09:38:14.130Z,102058.13
2022-09-22T09:40:41.273Z,102055.16
2022-09-22T09:43:09.266Z,102050.47
2022-09-22T09:45:54.357Z,102052.06
2022-09-22T09:48:43.390Z,102044.75
2022-09-22T09:51:14.291Z,102048.03
2022-09-22T09:53:46.481Z,102044.41
2022-09-22T09:56:24.297Z,102052.16
2022-09-22T09:59:30.463Z,102044.81
2022-09-22T10:01:57.825Z,102051.63
2022-09-22T10:04:35.312Z,102034.53
2022-09-22T10:07:16.713Z,102033.31
2022-09-22T10:09:44.648Z,102037.66
2022-09-22T10:12:32.877Z,102037.47
2022-09-22T10:15:01.506Z,102036.50
2022-09-22T10:17:42.516Z,102031.94
2022-09-22T10:20:26.454Z,102028.97
2022-09-22T10:22:54.542Z,102029.72
2022-09-22T10:25:34.098Z,102025.09
2022-09-22T10:28:16.149Z,102022.19
2022-09-22T10:30:43.843Z,102023.69
2022-09-22T10:33:19.905Z,102023.56
2022-09-22T10:36:07.856Z,102017.81
2022-09-22T10:38:42.704Z,102019.09
2022-09-22T10:41:27.380Z,102015.91
2022-09-22T10:44:06.375Z,102013.88
2022-09-22T10:46:50.845Z,102010.84
2022-09-22T10:49:51.461Z,102008.72
2022-09-22T10:52:51.319Z,102005.72
2022-09-22T10:55:35.767Z,102003.44
2022-09-22T10:58:07.181Z,102002.72
2022-09-22T11:00:40.288Z,102003.56
2022-09-22T11:03:28.039Z,101997.00
2022-09-22T11:06:37.706Z,101986.19
2022-09-22T11:09:56.482Z,101979.63
2022-09-22T11:12:37.586Z,101971.34
2022-09-22T11:15:26.340Z,101976.09
2022-09-22T11:18:19.093Z,101970.59
2022-09-22T11:20:51.281Z,101971.00
2022-09-22T11:23:38.135Z,101962.94
2022-09-22T11:26:29.121Z,101964.53
2022-09-22T11:29:37.522Z,101959.84
2022-09-22T11:32:49.141Z,101960.44
2022-09-22T11:35:43.465Z,101956.28
2022-09-22T11:38:24.082Z,101954.94
2022-09-22T11:41:37.286Z,101958.25
2022-09-22T11:44:24.802Z,101953.75
2022-09-22T11:47:05.402Z,101949.25
2022-09-22T11:49:37.821Z,101948.63
2022-09-22T11:52:49.125Z,101943.00
2022-09-22T11:55:41.999Z,101936.41
2022-09-22T11:58:17.341Z,101936.06
2022-09-22T12:01:17.983Z,101932.66
2022-09-22T12:03:54.541Z,101930.19
2022-09-22T12:06:26.331Z,101926.59
2022-09-22T12:09:03.632Z,101926.59
2022-09-22T12:11:35.838Z,101924.00
2022-09-22T12:14:04.219Z,101920.38
2022-09-22T12:16:42.056Z,101921.25
2022-09-22T12:19:25.149Z,101912.56
2022-09-22T12:22:28.405Z,101907.44
2022-09-22T12:24:54.987Z,101911.19
2022-09-22T12:27:23.071Z,101906.72
2022-09-22T12:30:01.725Z,101903.16
2022-09-22T12:32:41.095Z,101896.88
2022-09-22T12:35:19.373Z,101903.81
2022-09-22T12:37:46.062Z,101901.09
2022-09-22T12:40:32.023Z,101894.94
2022-09-22T12:43:01.989Z,101895.75
2022-09-22T12:45:37.183Z,101886.72
2022-09-22T12:48:13.058Z,101893.88
2022-09-22T12:50:45.141Z,101885.03
2022-09-22T12:53:20.882Z,101897.59
2022-09-22T12:55:48.717Z,101892.34
2022-09-22T12:58:21.285Z,101885.38
2022-09-22T13:00:50.471Z,101885.53
2022-09-22T13:03:26.212Z,101878.59
2022-09-22T13:06:04.335Z,101874.22
2022-09-22T13:08:33.499Z,101874.34
2022-09-22T13:11:08.750Z,101873.56
2022-09-22T13:13:43.823Z,101867.41
2022-09-22T13:16:16.489Z,101864.84
2022-09-22T13:18:51.635Z,101870.28
2022-09-22T13:21:28.967Z,101867.69
2022-09-22T13:23:55.623Z,101860.66
2022-09-22T13:26:25.837Z,101861.63
2022-09-22T13:29:11.054Z,101862.59
2022-09-22T13:31:55.578Z,101858.09
2022-09-22T13:34:29.570Z,101855.53
2022-09-22T13:37:00.497Z,101852.00
2022-09-22T13:39:42.252Z,101855.66
2022-09-22T13:42:27.312Z,101850.31
2022-09-22T13:45:06.556Z,101845.91
2022-09-22T13:47:35.253Z,101844.16
2022-09-22T13:50:07.031Z,101839.81
2022-09-22T13:52:38.418Z,101839.75
2022-09-22T13:55:37.400Z,101834.47
2022-09-22T13:58:14.735Z,101837.16
2022-09-22T14:01:11.574Z,101837.28
2022-09-22T14:03:38.243Z,101838.25
2022-09-22T14:06:09.447Z,101832.16
2022-09-22T14:08:36.669Z,101827.03
2022-09-22T14:11:06.936Z,101830.69
2022-09-22T14:14:06.926Z,101827.19
2022-09-22T14:17:08.103Z,101829.94
2022-09-22T14:19:45.698Z,101822.88
2022-09-22T14:22:27.470Z,101819.41
2022-09-22T14:25:00.290Z,101820.31
2022-09-22T14:27:29.007Z,101809.56
2022-09-22T14:29:56.370Z,101810.28
2022-09-22T14:32:37.928Z,101804.75
2022-09-22T14:35:08.736Z,101804.75
2022-09-22T14:37:43.472Z,101812.91
2022-09-22T14:40:19.729Z,101805.88
2022-09-22T14:42:58.050Z,101801.38
2022-09-22T14:45:26.051Z,101802.31
2022-09-22T14:48:18.745Z,101800.53
2022-09-22T14:51:06.788Z,101797.06
2022-09-22T14:53:40.885Z,101790.78
2022-09-22T14:56:17.306Z,101787.16
2022-09-22T14:58:50.593Z,101778.38
2022-09-22T15:01:40.745Z,101785.56
2022-09-22T15:04:13.522Z,101775.91
2022-09-22T15:06:40.326Z,101776.88
2022-09-22T15:09:13.347Z,101784.94
2022-09-22T15:12:03.619Z,101773.56
2022-09-22T15:14:44.341Z,101773.69
2022-09-22T15:17:53.564Z,101776.63
2022-09-22T15:20:22.001Z,101772.38
2022-09-22T15:22:49.116Z,101776.13
2022-09-22T15:25:16.747Z,101773.63
2022-09-22T15:27:44.171Z,101767.59
2022-09-22T15:30:15.897Z,101770.25
2022-09-22T15:32:45.329Z,101770.34
2022-09-22T15:35:12.710Z,101766.84
2022-09-22T15:37:42.178Z,101770.47
2022-09-22T15:40:21.433Z,101761.78
2022-09-22T15:43:11.299Z,101769.84
2022-09-22T15:45:37.371Z,101765.47
2022-09-22T15:48:04.243Z,101769.16
2022-09-22T15:50:31.005Z,101768.47
2022-09-22T15:52:57.758Z,101770.38
2022-09-22T15:55:25.183Z,101762.56
2022-09-22T15:57:55.350Z,101765.38
2022-09-22T16:00:27.607Z,101763.78
2022-09-22T16:02:54.738Z,101757.75
2022-09-22T16:05:21.515Z,101758.81
2022-09-22T16:07:52.836Z,101760.75
2022-09-22T16:10:23.683Z,101768.97
2022-09-22T16:12:50.757Z,101765.66
2022-09-22T16:15:17.738Z,101772.16
2022-09-22T16:17:46.065Z,101774.16
2022-09-22T16:20:15.606Z,101764.50
2022-09-22T16:22:42.998Z,101777.09
2022-09-22T16:25:11.658Z,101771.91
2022-09-22T16:27:38.908Z,101770.28
2022-09-22T16:30:06.273Z,101766.03
2022-09-22T16:32:36.289Z,101768.03
2022-09-22T16:35:03.792Z,101768.31
2022-09-22T16:37:30.438Z,101770.22
2022-09-22T16:39:57.058Z,101762.41
2022-09-22T16:42:25.568Z,101769.69
2022-09-22T16:44:52.249Z,101764.53
2022-09-22T16:47:21.198Z,101760.25
2022-09-22T16:49:49.608Z,101762.22
2022-09-22T16:52:16.770Z,101761.56
2022-09-22T16:54:44.117Z,101764.50
2022-09-22T16:57:10.768Z,101755.88
2022-09-22T16:59:38.094Z,101756.19
2022-09-22T17:02:04.857Z,101759.94
2022-09-22T17:04:32.425Z,101754.94
2022-09-22T17:06:59.270Z,101755.13
2022-09-22T17:09:25.982Z,101747.31
2022-09-22T17:11:53.648Z,101749.28
2022-09-22T17:14:22.148Z,101745.06
2022-09-22T17:16:52.256Z,101744.28
2022-09-22T17:19:23.184Z,101750.66
2022-09-22T17:21:52.823Z,101740.09
2022-09-22T17:24:20.022Z,101738.44
2022-09-22T17:26:49.522Z,101742.00
2022-09-22T17:29:25.146Z,101739.47
2022-09-22T17:31:57.431Z,101731.66
2022-09-22T17:34:25.559Z,101739.91
2022-09-22T17:36:55.439Z,101740.97
2022-09-22T17:39:24.207Z,101734.06
2022-09-22T17:41:50.843Z,101735.25
2022-09-22T17:44:21.268Z,101741.59
2022-09-22T17:47:11.525Z,101731.03
2022-09-22T17:49:57.958Z,101737.38
2022-09-22T17:52:40.167Z,101731.38
2022-09-22T17:55:21.735Z,101735.91
2022-09-22T17:57:49.823Z,101737.78
2022-09-22T18:00:21.908Z,101728.97
2022-09-22T18:02:50.097Z,101732.59
2022-09-22T18:05:22.719Z,101729.19
2022-09-22T18:07:53.538Z,101744.34
2022-09-22T18:10:20.875Z,101746.38
2022-09-22T18:12:47.510Z,101741.28
2022-09-22T18:15:15.115Z,101737.91
2022-09-22T18:17:43.092Z,101742.47
2022-09-22T18:20:15.648Z,101744.34
2022-09-22T18:22:47.912Z,101741.75
2022-09-22T18:25:16.625Z,101738.31
2022-09-22T18:27:46.191Z,101742.81
2022-09-22T18:30:15.890Z,101742.03
2022-09-22T18:32:42.819Z,101736.81
2022-09-22T18:35:09.785Z,101732.44
2022-09-22T18:37:36.353Z,101734.22
2022-09-22T18:40:03.714Z,101734.16
2022-09-22T18:42:32.818Z,101741.25
2022-09-22T18:44:59.496Z,101741.25
2022-09-22T18:47:26.351Z,101733.28
2022-09-22T18:49:52.955Z,101729.75
2022-09-22T18:52:24.529Z,101733.28
2022-09-22T18:54:55.798Z,101741.25
2022-09-22T18:57:25.687Z,101737.66
2022-09-22T18:59:54.011Z,101739.44
2022-09-22T19:02:21.606Z,101749.16
2022-09-22T19:04:49.206Z,101732.28
2022-09-22T19:07:36.633Z,101740.25
2022-09-22T19:10:08.394Z,101736.75
2022-09-22T19:12:39.640Z,101736.75
2022-09-22T19:15:15.479Z,101741.19
2022-09-22T19:17:46.608Z,101735.00
2022-09-22T19:20:21.007Z,101734.00
2022-09-22T19:22:49.378Z,101738.41
2022-09-22T19:25:16.381Z,101741.03
2022-09-22T19:27:43.046Z,101741.91
2022-09-22T19:30:11.011Z,101736.50
2022-09-22T19:32:38.164Z,101739.97
2022-09-22T19:35:06.646Z,101733.72
2022-09-22T19:37:33.425Z,101739.88
2022-09-22T19:40:00.084Z,101733.59
2022-09-22T19:42:28.484Z,101737.06
2022-09-22T19:44:55.154Z,101732.63
2022-09-22T19:47:21.818Z,101733.47
2022-09-22T19:49:48.690Z,101732.56
2022-09-22T19:52:15.326Z,101728.94
2022-09-22T19:54:42.003Z,101728.06
2022-09-22T19:57:08.755Z,101730.72
2022-09-22T19:59:35.444Z,101724.59
2022-09-22T20:02:03.823Z,101724.59
2022-09-22T20:04:34.357Z,101727.25
2022-09-22T20:07:01.566Z,101721.13
2022-09-22T20:09:28.190Z,101728.19
2022-09-22T20:11:54.879Z,101727.31
2022-09-22T20:14:22.570Z,101721.09
2022-09-22T20:17:02.583Z,101717.50
2022-09-22T20:19:31.596Z,101721.09
2022-09-22T20:22:24.066Z,101721.13
2022-09-22T20:24:55.686Z,101722.00
2022-09-22T20:27:24.043Z,101717.63
2022-09-22T20:29:55.063Z,101713.16
2022-09-22T20:32:24.260Z,101719.31
2022-09-22T20:34:51.534Z,101705.09
2022-09-22T20:37:18.151Z,101718.34
2022-09-22T20:39:44.777Z,101723.59
2022-09-22T20:42:13.546Z,101712.00
2022-09-22T20:44:42.373Z,101716.34
2022-09-22T20:47:21.304Z,101715.34
2022-09-22T20:49:52.091Z,101716.19
2022-09-22T20:52:20.475Z,101711.66
2022-09-22T20:54:49.938Z,101713.50
2022-09-22T20:57:17.046Z,101704.63
2022-09-22T20:59:46.016Z,101704.53
2022-09-22T21:02:15.880Z,101705.38
2022-09-22T21:04:42.663Z,101709.78
2022-09-22T21:07:10.216Z,101708.84
2022-09-22T21:09:57.591Z,101707.13
2022-09-22T21:12:31.061Z,101706.16
2022-09-22T21:14:58.447Z,101707.03
2022-09-22T21:17:26.210Z,101698.13
2022-09-22T21:19:56.022Z,101691.00
2022-09-22T21:22:22.686Z,101693.66
2022-09-22T21:24:49.358Z,101696.22
2022-09-22T21:27:16.087Z,101684.72
2022-09-22T21:29:42.770Z,101677.53
2022-09-22T21:32:09.619Z,101674.06
2022-09-22T21:34:36.629Z,101670.56
2022-09-22T21:37:06.754Z,101673.28
2022-09-22T21:39:33.331Z,101674.25
2022-09-22T21:42:00.006Z,101681.44
2022-09-22T21:44:26.599Z,101686.78
2022-09-22T21:46:54.233Z,101691.25
2022-09-22T21:49:20.817Z,101680.78
2022-09-22T21:51:50.359Z,101685.31
2022-09-22T21:54:19.950Z,101684.44
2022-09-22T21:56:46.994Z,101682.63
2022-09-22T21:59:14.198Z,101675.44
2022-09-22T22:01:45.149Z,101668.31
2022-09-22T22:04:15.147Z,101671.03
2022-09-22T22:06:46.798Z,101669.19
2022-09-22T22:09:19.382Z,101667.38
2022-09-22T22:11:55.645Z,101668.22
2022-09-22T22:14:24.249Z,101662.00
2022-09-22T22:16:53.091Z,101668.16
2022-09-22T22:19:22.267Z,101664.56
2022-09-22T22:21:50.774Z,101658.38
2022-09-22T22:24:26.203Z,101654.75
2022-09-22T22:26:58.208Z,101661.78
2022-09-22T22:29:26.772Z,101658.19
2022-09-22T22:31:53.863Z,101647.56
2022-09-22T22:34:22.693Z,101649.28
2022-09-22T22:36:49.684Z,101646.56
2022-09-22T22:39:16.507Z,101656.31
2022-09-22T22:41:43.171Z,101647.47
2022-09-22T22:44:10.014Z,101653.66
2022-09-22T22:46:37.371Z,101644.75
2022-09-22T22:49:07.181Z,101641.16
2022-09-22T22:51:37.340Z,101645.59
2022-09-22T22:54:05.004Z,101642.97
2022-09-22T22:56:32.436Z,101637.63
2022-09-22T22:58:59.553Z,101639.34
2022-09-22T23:01:29.890Z,101634.03
2022-09-22T23:04:02.223Z,101629.63
2022-09-22T23:06:30.276Z,101626.97
2022-09-22T23:08:57.483Z,101627.84
2022-09-22T23:11:35.679Z,101624.25
2022-09-22T23:14:03.800Z,101630.41
2022-09-22T23:16:41.711Z,101628.66
2022-09-22T23:19:11.507Z,101625.13
2022-09-22T23:21:38.548Z,101621.59
2022-09-22T23:24:05.666Z,101626.09
2022-09-22T23:26:37.602Z,101623.47
2022-09-22T23:29:13.409Z,101617.28
2022-09-22T23:31:40.047Z,101620.88
2022-09-22T23:34:09.622Z,101622.66
2022-09-22T23:36:36.394Z,101612.03
2022-09-22T23:39:04.794Z,101609.31
2022-09-22T23:41:34.144Z,101609.25
2022-09-22T23:44:01.209Z,101606.59
2022-09-22T23:46:27.993Z,101601.25
2022-09-22T23:48:55.739Z,101597.75
2022-09-22T23:51:22.928Z,101606.66
2022-09-22T23:53:49.754Z,101596.88
2022-09-22T23:56:16.602Z,101601.31
2022-09-22T23:58:43.238Z,101593.28
